sensor_id;sensor_type;location;lat;lon;timestamp;pressure;altitude;pressure_sealevel;temperature;humidity
64632;BME280;58358;50.936;0.246;2023-03-12T00:00:43;100157.49;;;8.10;74.29
64632;BME280;58358;50.936;0.246;2023-03-12T00:03:09;100159.94;;;9.01;71.49
64632;BME280;58358;50.936;0.246;2023-03-12T00:05:36;100160.30;;;8.78;72.40
64632;BME280;58358;50.936;0.246;2023-03-12T00:07:59;100164.15;;;7.92;73.38
64632;BME280;58358;50.936;0.246;2023-03-12T00:10:25;100175.65;;;7.65;75.91
64632;BME280;58358;50.936;0.246;2023-03-12T00:12:50;100169.11;;;7.82;75.06
64632;BME280;58358;50.936;0.246;2023-03-12T00:15:16;100163.41;;;8.66;72.58
64632;BME280;58358;50.936;0.246;2023-03-12T00:17:41;100165.32;;;8.17;74.57
64632;BME280;58358;50.936;0.246;2023-03-12T00:20:07;100164.93;;;9.02;72.24
64632;BME280;58358;50.936;0.246;2023-03-12T00:22:32;100164.74;;;8.55;72.42
64632;BME280;58358;50.936;0.246;2023-03-12T00:24:58;100166.75;;;8.89;72.24
64632;BME280;58358;50.936;0.246;2023-03-12T00:27:24;100172.58;;;8.34;72.93
64632;BME280;58358;50.936;0.246;2023-03-12T00:29:49;100167.52;;;9.40;69.93
64632;BME280;58358;50.936;0.246;2023-03-12T00:32:15;100166.05;;;9.32;69.77
64632;BME280;58358;50.936;0.246;2023-03-12T00:34:40;100158.37;;;8.59;71.37
64632;BME280;58358;50.936;0.246;2023-03-12T00:37:06;100159.39;;;8.16;73.52
64632;BME280;58358;50.936;0.246;2023-03-12T00:39:31;100161.89;;;9.10;70.34
64632;BME280;58358;50.936;0.246;2023-03-12T00:41:56;100165.29;;;8.26;72.90
64632;BME280;58358;50.936;0.246;2023-03-12T00:44:22;100164.88;;;8.68;71.27
64632;BME280;58358;50.936;0.246;2023-03-12T00:46:48;100169.08;;;9.38;69.85
64632;BME280;58358;50.936;0.246;2023-03-12T00:49:13;100166.47;;;9.55;68.86
64632;BME280;58358;50.936;0.246;2023-03-12T00:51:38;100168.73;;;8.72;69.58
64632;BME280;58358;50.936;0.246;2023-03-12T00:54:04;100171.38;;;8.57;72.45
64632;BME280;58358;50.936;0.246;2023-03-12T00:56:30;100172.63;;;9.19;69.91
64632;BME280;58358;50.936;0.246;2023-03-12T00:58:55;100170.84;;;9.25;69.55
64632;BME280;58358;50.936;0.246;2023-03-12T01:01:20;100170.84;;;9.69;69.10
64632;BME280;58358;50.936;0.246;2023-03-12T01:03:46;100173.21;;;9.69;68.66
64632;BME280;58358;50.936;0.246;2023-03-12T01:06:12;100169.78;;;9.29;68.86
64632;BME280;58358;50.936;0.246;2023-03-12T01:08:37;100168.22;;;9.49;69.42
64632;BME280;58358;50.936;0.246;2023-03-12T01:11:03;100164.44;;;9.15;70.02
64632;BME280;58358;50.936;0.246;2023-03-12T01:13:27;100162.44;;;8.60;71.93
64632;BME280;58358;50.936;0.246;2023-03-12T01:15:53;100164.81;;;9.13;72.83
64632;BME280;58358;50.936;0.246;2023-03-12T01:18:18;100166.78;;;8.80;73.56
64632;BME280;58358;50.936;0.246;2023-03-12T01:20:43;100165.68;;;8.18;75.14
64632;BME280;58358;50.936;0.246;2023-03-12T01:23:09;100162.23;;;8.38;74.88
64632;BME280;58358;50.936;0.246;2023-03-12T01:25:34;100167.80;;;8.30;76.27
64632;BME280;58358;50.936;0.246;2023-03-12T01:28:00;100161.46;;;8.54;76.20
64632;BME280;58358;50.936;0.246;2023-03-12T01:30:26;100158.62;;;8.46;77.06
64632;BME280;58358;50.936;0.246;2023-03-12T01:32:51;100156.51;;;8.71;76.55
64632;BME280;58358;50.936;0.246;2023-03-12T01:35:17;100159.91;;;8.58;76.50
64632;BME280;58358;50.936;0.246;2023-03-12T01:37:42;100155.17;;;8.70;76.50
64632;BME280;58358;50.936;0.246;2023-03-12T01:40:11;100159.36;;;8.99;75.40
64632;BME280;58358;50.936;0.246;2023-03-12T01:42:33;100159.24;;;8.79;76.16
64632;BME280;58358;50.936;0.246;2023-03-12T01:45:00;100154.40;;;8.77;76.21
64632;BME280;58358;50.936;0.246;2023-03-12T01:47:24;100151.03;;;8.67;76.38
64632;BME280;58358;50.936;0.246;2023-03-12T01:49:50;100150.66;;;8.78;76.28
64632;BME280;58358;50.936;0.246;2023-03-12T01:52:17;100145.28;;;9.21;74.75
64632;BME280;58358;50.936;0.246;2023-03-12T01:54:43;100140.00;;;9.20;73.97
64632;BME280;58358;50.936;0.246;2023-03-12T01:57:09;100139.02;;;9.27;72.56
64632;BME280;58358;50.936;0.246;2023-03-12T01:59:32;100142.45;;;9.29;71.85
64632;BME280;58358;50.936;0.246;2023-03-12T02:01:56;100141.64;;;8.91;74.77
64632;BME280;58358;50.936;0.246;2023-03-12T02:04:23;100146.12;;;8.81;74.23
64632;BME280;58358;50.936;0.246;2023-03-12T02:06:51;100146.04;;;9.13;72.89
64632;BME280;58358;50.936;0.246;2023-03-12T02:09:11;100143.31;;;8.67;75.74
64632;BME280;58358;50.936;0.246;2023-03-12T02:11:37;100138.50;;;9.10;74.75
64632;BME280;58358;50.936;0.246;2023-03-12T02:14:03;100137.81;;;9.21;73.94
64632;BME280;58358;50.936;0.246;2023-03-12T02:16:29;100134.43;;;9.72;72.57
64632;BME280;58358;50.936;0.246;2023-03-12T02:18:55;100141.19;;;8.84;72.92
64632;BME280;58358;50.936;0.246;2023-03-12T02:21:21;100143.05;;;9.54;72.41
64632;BME280;58358;50.936;0.246;2023-03-12T02:23:49;100145.19;;;9.64;72.12
64632;BME280;58358;50.936;0.246;2023-03-12T02:26:10;100142.29;;;9.00;75.03
64632;BME280;58358;50.936;0.246;2023-03-12T02:28:36;100142.57;;;9.43;74.34
64632;BME280;58358;50.936;0.246;2023-03-12T02:31:02;100140.55;;;9.28;73.77
64632;BME280;58358;50.936;0.246;2023-03-12T02:33:26;100140.64;;;9.64;72.61
64632;BME280;58358;50.936;0.246;2023-03-12T02:35:52;100142.14;;;9.07;73.87
64632;BME280;58358;50.936;0.246;2023-03-12T02:38:31;100135.92;;;9.67;71.55
64632;BME280;58358;50.936;0.246;2023-03-12T02:40:44;100124.66;;;9.87;71.71
64632;BME280;58358;50.936;0.246;2023-03-12T02:43:08;100119.39;;;9.51;72.56
64632;BME280;58358;50.936;0.246;2023-03-12T02:45:33;100123.11;;;8.51;76.11
64632;BME280;58358;50.936;0.246;2023-03-12T02:47:58;100127.25;;;9.33;75.21
64632;BME280;58358;50.936;0.246;2023-03-12T02:50:24;100126.83;;;8.47;76.88
64632;BME280;58358;50.936;0.246;2023-03-12T02:52:49;100129.94;;;8.56;78.76
64632;BME280;58358;50.936;0.246;2023-03-12T02:55:15;100126.71;;;8.31;78.41
64632;BME280;58358;50.936;0.246;2023-03-12T02:57:40;100124.61;;;8.67;78.51
64632;BME280;58358;50.936;0.246;2023-03-12T03:00:08;100122.61;;;8.64;78.54
64632;BME280;58358;50.936;0.246;2023-03-12T03:02:31;100126.30;;;8.44;79.62
64632;BME280;58358;50.936;0.246;2023-03-12T03:04:56;100134.37;;;8.61;80.08
64632;BME280;58358;50.936;0.246;2023-03-12T03:07:22;100136.93;;;8.85;77.40
64632;BME280;58358;50.936;0.246;2023-03-12T03:09:47;100137.13;;;9.52;75.70
64632;BME280;58358;50.936;0.246;2023-03-12T03:12:12;100141.12;;;9.15;78.43
64632;BME280;58358;50.936;0.246;2023-03-12T03:14:37;100139.09;;;8.97;77.58
64632;BME280;58358;50.936;0.246;2023-03-12T03:17:03;100142.20;;;8.48;80.32
64632;BME280;58358;50.936;0.246;2023-03-12T03:19:29;100143.54;;;8.00;84.25
64632;BME280;58358;50.936;0.246;2023-03-12T03:21:55;100144.55;;;8.30;84.21
64632;BME280;58358;50.936;0.246;2023-03-12T03:24:20;100143.23;;;8.26;83.29
64632;BME280;58358;50.936;0.246;2023-03-12T03:26:45;100134.73;;;7.95;84.33
64632;BME280;58358;50.936;0.246;2023-03-12T03:29:11;100130.71;;;7.48;85.88
64632;BME280;58358;50.936;0.246;2023-03-12T03:31:37;100134.84;;;6.72;87.69
64632;BME280;58358;50.936;0.246;2023-03-12T03:34:02;100137.72;;;6.71;89.44
64632;BME280;58358;50.936;0.246;2023-03-12T03:36:28;100143.53;;;6.18;94.24
64632;BME280;58358;50.936;0.246;2023-03-12T03:38:53;100155.34;;;6.89;91.61
64632;BME280;58358;50.936;0.246;2023-03-12T03:41:19;100162.87;;;6.86;91.76
64632;BME280;58358;50.936;0.246;2023-03-12T03:43:44;100172.33;;;7.21;88.94
64632;BME280;58358;50.936;0.246;2023-03-12T03:46:11;100174.02;;;6.49;91.76
64632;BME280;58358;50.936;0.246;2023-03-12T03:48:36;100178.90;;;6.18;91.84
64632;BME280;58358;50.936;0.246;2023-03-12T03:51:01;100189.12;;;6.69;91.33
64632;BME280;58358;50.936;0.246;2023-03-12T03:53:26;100194.44;;;7.18;90.98
64632;BME280;58358;50.936;0.246;2023-03-12T03:55:51;100194.46;;;6.53;92.66
64632;BME280;58358;50.936;0.246;2023-03-12T03:58:17;100204.75;;;7.06;91.42
64632;BME280;58358;50.936;0.246;2023-03-12T04:00:43;100214.73;;;6.74;92.14
64632;BME280;58358;50.936;0.246;2023-03-12T04:03:08;100219.15;;;6.94;92.59
64632;BME280;58358;50.936;0.246;2023-03-12T04:05:33;100224.27;;;6.44;96.02
64632;BME280;58358;50.936;0.246;2023-03-12T04:07:59;100220.05;;;5.96;97.49
64632;BME280;58358;50.936;0.246;2023-03-12T04:10:24;100223.17;;;5.72;98.83
64632;BME280;58358;50.936;0.246;2023-03-12T04:12:50;100221.14;;;5.47;100.00
64632;BME280;58358;50.936;0.246;2023-03-12T04:15:16;100226.67;;;5.10;100.00
64632;BME280;58358;50.936;0.246;2023-03-12T04:17:40;100223.95;;;5.22;100.00
64632;BME280;58358;50.936;0.246;2023-03-12T04:20:07;100223.70;;;5.69;100.00
64632;BME280;58358;50.936;0.246;2023-03-12T04:22:32;100220.34;;;6.94;97.57
64632;BME280;58358;50.936;0.246;2023-03-12T04:24:58;100223.77;;;7.45;94.80
64632;BME280;58358;50.936;0.246;2023-03-12T04:27:24;100226.71;;;6.98;94.20
64632;BME280;58358;50.936;0.246;2023-03-12T04:29:48;100230.73;;;5.68;97.77
64632;BME280;58358;50.936;0.246;2023-03-12T04:32:14;100239.67;;;5.62;100.00
64632;BME280;58358;50.936;0.246;2023-03-12T04:34:39;100238.67;;;4.98;100.00
64632;BME280;58358;50.936;0.246;2023-03-12T04:37:06;100239.51;;;5.52;100.00
64632;BME280;58358;50.936;0.246;2023-03-12T04:39:31;100234.78;;;5.47;100.00
64632;BME280;58358;50.936;0.246;2023-03-12T04:41:56;100226.45;;;5.08;100.00
64632;BME280;58358;50.936;0.246;2023-03-12T04:44:21;100226.79;;;5.76;100.00
64632;BME280;58358;50.936;0.246;2023-03-12T04:46:47;100230.83;;;5.81;100.00
64632;BME280;58358;50.936;0.246;2023-03-12T04:49:12;100235.90;;;5.68;100.00
64632;BME280;58358;50.936;0.246;2023-03-12T04:51:37;100242.61;;;5.62;97.82
64632;BME280;58358;50.936;0.246;2023-03-12T04:54:03;100250.70;;;5.40;100.00
64632;BME280;58358;50.936;0.246;2023-03-12T04:56:28;100253.73;;;5.13;100.00
64632;BME280;58358;50.936;0.246;2023-03-12T04:58:53;100256.65;;;5.76;100.00
64632;BME280;58358;50.936;0.246;2023-03-12T05:01:23;100258.39;;;6.21;98.19
64632;BME280;58358;50.936;0.246;2023-03-12T05:03:44;100267.02;;;5.83;98.62
64632;BME280;58358;50.936;0.246;2023-03-12T05:06:09;100275.92;;;6.88;94.44
64632;BME280;58358;50.936;0.246;2023-03-12T05:08:35;100278.90;;;6.40;94.78
64632;BME280;58358;50.936;0.246;2023-03-12T05:11:00;100286.60;;;6.44;95.10
64632;BME280;58358;50.936;0.246;2023-03-12T05:13:26;100282.98;;;6.44;94.04
64632;BME280;58358;50.936;0.246;2023-03-12T05:15:51;100279.03;;;6.67;94.02
64632;BME280;58358;50.936;0.246;2023-03-12T05:18:16;100277.12;;;6.34;93.89
64632;BME280;58358;50.936;0.246;2023-03-12T05:20:42;100278.74;;;4.98;96.13
64632;BME280;58358;50.936;0.246;2023-03-12T05:23:07;100285.44;;;6.66;95.45
64632;BME280;58358;50.936;0.246;2023-03-12T05:25:33;100284.83;;;6.66;93.82
64632;BME280;58358;50.936;0.246;2023-03-12T05:27:58;100285.05;;;6.24;92.71
64632;BME280;58358;50.936;0.246;2023-03-12T05:30:24;100291.50;;;6.58;93.53
64632;BME280;58358;50.936;0.246;2023-03-12T05:32:50;100291.25;;;5.57;96.88
64632;BME280;58358;50.936;0.246;2023-03-12T05:35:15;100297.49;;;6.60;95.72
64632;BME280;58358;50.936;0.246;2023-03-12T05:37:41;100299.14;;;6.42;94.88
64632;BME280;58358;50.936;0.246;2023-03-12T05:40:10;100291.74;;;6.54;96.91
64632;BME280;58358;50.936;0.246;2023-03-12T05:42:32;100289.33;;;7.17;92.96
64632;BME280;58358;50.936;0.246;2023-03-12T05:44:58;100298.59;;;7.12;92.57
64632;BME280;58358;50.936;0.246;2023-03-12T05:47:24;100286.53;;;7.18;92.42
64632;BME280;58358;50.936;0.246;2023-03-12T05:49:49;100285.26;;;6.71;93.11
64632;BME280;58358;50.936;0.246;2023-03-12T05:52:14;100287.25;;;7.49;91.37
64632;BME280;58358;50.936;0.246;2023-03-12T05:54:39;100289.54;;;7.21;91.91
64632;BME280;58358;50.936;0.246;2023-03-12T05:57:05;100286.13;;;7.38;91.86
64632;BME280;58358;50.936;0.246;2023-03-12T05:59:31;100281.56;;;6.53;95.38
64632;BME280;58358;50.936;0.246;2023-03-12T06:01:57;100286.82;;;7.01;93.10
64632;BME280;58358;50.936;0.246;2023-03-12T06:04:21;100287.01;;;7.85;90.82
64632;BME280;58358;50.936;0.246;2023-03-12T06:06:47;100279.41;;;6.53;94.75
64632;BME280;58358;50.936;0.246;2023-03-12T06:09:12;100280.58;;;6.86;91.89
64632;BME280;58358;50.936;0.246;2023-03-12T06:11:37;100290.04;;;7.21;91.69
64632;BME280;58358;50.936;0.246;2023-03-12T06:14:03;100294.35;;;7.91;88.59
64632;BME280;58358;50.936;0.246;2023-03-12T06:16:29;100290.17;;;7.94;89.05
64632;BME280;58358;50.936;0.246;2023-03-12T06:18:55;100284.15;;;7.96;87.81
64632;BME280;58358;50.936;0.246;2023-03-12T06:21:22;100276.78;;;7.31;90.97
64632;BME280;58358;50.936;0.246;2023-03-12T06:23:45;100282.99;;;6.43;91.24
64632;BME280;58358;50.936;0.246;2023-03-12T06:26:11;100280.27;;;6.82;90.83
64632;BME280;58358;50.936;0.246;2023-03-12T06:28:36;100281.45;;;6.04;93.36
64632;BME280;58358;50.936;0.246;2023-03-12T06:31:01;100286.17;;;6.00;95.26
64632;BME280;58358;50.936;0.246;2023-03-12T06:33:27;100304.98;;;6.26;94.91
64632;BME280;58358;50.936;0.246;2023-03-12T06:35:53;100317.07;;;6.29;95.00
64632;BME280;58358;50.936;0.246;2023-03-12T06:38:18;100328.59;;;6.53;94.00
64632;BME280;58358;50.936;0.246;2023-03-12T06:40:54;100328.86;;;6.10;93.03
64632;BME280;58358;50.936;0.246;2023-03-12T06:43:09;100322.22;;;7.27;89.33
64632;BME280;58358;50.936;0.246;2023-03-12T06:45:34;100320.59;;;6.37;94.24
64632;BME280;58358;50.936;0.246;2023-03-12T06:48:00;100318.70;;;7.27;91.45
64632;BME280;58358;50.936;0.246;2023-03-12T06:50:25;100326.93;;;7.36;89.44
64632;BME280;58358;50.936;0.246;2023-03-12T06:52:51;100332.90;;;7.76;89.77
64632;BME280;58358;50.936;0.246;2023-03-12T06:55:16;100343.05;;;6.93;91.93
64632;BME280;58358;50.936;0.246;2023-03-12T06:57:42;100350.30;;;7.07;93.05
64632;BME280;58358;50.936;0.246;2023-03-12T07:00:08;100359.42;;;6.65;93.62
64632;BME280;58358;50.936;0.246;2023-03-12T07:02:32;100353.49;;;7.20;93.57
64632;BME280;58358;50.936;0.246;2023-03-12T07:04:58;100355.67;;;6.78;91.47
64632;BME280;58358;50.936;0.246;2023-03-12T07:07:24;100347.95;;;6.06;95.44
64632;BME280;58358;50.936;0.246;2023-03-12T07:09:49;100343.88;;;6.48;95.20
64632;BME280;58358;50.936;0.246;2023-03-12T07:12:14;100346.82;;;6.25;96.28
64632;BME280;58358;50.936;0.246;2023-03-12T07:14:39;100350.87;;;6.43;93.69
64632;BME280;58358;50.936;0.246;2023-03-12T07:17:05;100345.97;;;7.06;92.45
64632;BME280;58358;50.936;0.246;2023-03-12T07:19:30;100342.68;;;7.16;92.05
64632;BME280;58358;50.936;0.246;2023-03-12T07:21:56;100349.75;;;7.59;89.77
64632;BME280;58358;50.936;0.246;2023-03-12T07:24:21;100356.31;;;7.94;87.66
64632;BME280;58358;50.936;0.246;2023-03-12T07:26:46;100361.79;;;8.49;86.68
64632;BME280;58358;50.936;0.246;2023-03-12T07:29:12;100360.47;;;7.25;88.40
64632;BME280;58358;50.936;0.246;2023-03-12T07:31:38;100354.36;;;7.44;88.95
64632;BME280;58358;50.936;0.246;2023-03-12T07:34:03;100352.38;;;7.18;88.92
64632;BME280;58358;50.936;0.246;2023-03-12T07:36:28;100356.68;;;7.20;88.86
64632;BME280;58358;50.936;0.246;2023-03-12T07:38:54;100353.48;;;6.52;91.88
64632;BME280;58358;50.936;0.246;2023-03-12T07:41:19;100362.81;;;6.66;92.70
64632;BME280;58358;50.936;0.246;2023-03-12T07:43:45;100367.10;;;6.46;93.08
64632;BME280;58358;50.936;0.246;2023-03-12T07:46:11;100371.74;;;6.63;94.92
64632;BME280;58358;50.936;0.246;2023-03-12T07:48:37;100368.53;;;6.47;93.32
64632;BME280;58358;50.936;0.246;2023-03-12T07:51:02;100365.81;;;6.82;93.68
64632;BME280;58358;50.936;0.246;2023-03-12T07:53:27;100363.15;;;7.58;89.23
64632;BME280;58358;50.936;0.246;2023-03-12T07:55:53;100369.07;;;6.69;93.24
64632;BME280;58358;50.936;0.246;2023-03-12T07:58:18;100368.55;;;6.08;95.14
64632;BME280;58358;50.936;0.246;2023-03-12T08:00:44;100377.22;;;6.24;96.55
64632;BME280;58358;50.936;0.246;2023-03-12T08:03:09;100368.29;;;6.91;94.89
64632;BME280;58358;50.936;0.246;2023-03-12T08:05:35;100360.68;;;6.95;94.98
64632;BME280;58358;50.936;0.246;2023-03-12T08:08:01;100367.26;;;6.56;95.27
64632;BME280;58358;50.936;0.246;2023-03-12T08:10:26;100370.62;;;7.24;93.51
64632;BME280;58358;50.936;0.246;2023-03-12T08:12:51;100364.43;;;6.30;93.79
64632;BME280;58358;50.936;0.246;2023-03-12T08:15:16;100355.17;;;6.28;95.51
64632;BME280;58358;50.936;0.246;2023-03-12T08:17:42;100367.69;;;5.94;97.09
64632;BME280;58358;50.936;0.246;2023-03-12T08:20:09;100378.53;;;6.47;95.31
64632;BME280;58358;50.936;0.246;2023-03-12T08:22:33;100378.21;;;7.47;92.69
64632;BME280;58358;50.936;0.246;2023-03-12T08:24:59;100376.76;;;6.49;95.14
64632;BME280;58358;50.936;0.246;2023-03-12T08:27:24;100374.04;;;6.50;95.27
64632;BME280;58358;50.936;0.246;2023-03-12T08:29:50;100372.98;;;7.23;92.93
64632;BME280;58358;50.936;0.246;2023-03-12T08:32:16;100380.51;;;7.87;90.75
64632;BME280;58358;50.936;0.246;2023-03-12T08:34:41;100393.94;;;7.16;92.85
64632;BME280;58358;50.936;0.246;2023-03-12T08:37:06;100395.61;;;6.90;92.94
64632;BME280;58358;50.936;0.246;2023-03-12T08:39:32;100400.41;;;5.84;99.28
64632;BME280;58358;50.936;0.246;2023-03-12T08:41:57;100405.64;;;6.44;96.90
64632;BME280;58358;50.936;0.246;2023-03-12T08:44:22;100415.83;;;6.25;98.18
64632;BME280;58358;50.936;0.246;2023-03-12T08:46:47;100413.73;;;6.62;97.39
64632;BME280;58358;50.936;0.246;2023-03-12T08:49:13;100423.36;;;7.01;95.48
64632;BME280;58358;50.936;0.246;2023-03-12T08:51:38;100418.27;;;6.89;94.55
64632;BME280;58358;50.936;0.246;2023-03-12T08:54:04;100425.47;;;6.31;95.83
64632;BME280;58358;50.936;0.246;2023-03-12T08:56:29;100433.72;;;6.54;97.52
64632;BME280;58358;50.936;0.246;2023-03-12T08:58:54;100424.91;;;6.22;98.80
64632;BME280;58358;50.936;0.246;2023-03-12T09:01:19;100427.88;;;6.39;100.00
64632;BME280;58358;50.936;0.246;2023-03-12T09:03:45;100423.38;;;6.05;99.85
64632;BME280;58358;50.936;0.246;2023-03-12T09:06:12;100431.34;;;6.60;98.47
64632;BME280;58358;50.936;0.246;2023-03-12T09:08:36;100446.31;;;6.34;98.44
64632;BME280;58358;50.936;0.246;2023-03-12T09:11:01;100442.17;;;6.37;98.87
64632;BME280;58358;50.936;0.246;2023-03-12T09:13:27;100434.11;;;6.59;96.71
64632;BME280;58358;50.936;0.246;2023-03-12T09:15:57;100446.06;;;5.90;99.11
64632;BME280;58358;50.936;0.246;2023-03-12T09:18:18;100449.85;;;6.18;99.47
64632;BME280;58358;50.936;0.246;2023-03-12T09:20:43;100451.20;;;6.21;99.44
64632;BME280;58358;50.936;0.246;2023-03-12T09:23:08;100444.13;;;6.44;98.70
64632;BME280;58358;50.936;0.246;2023-03-12T09:25:33;100453.50;;;6.27;98.99
64632;BME280;58358;50.936;0.246;2023-03-12T09:27:59;100449.03;;;6.96;96.30
64632;BME280;58358;50.936;0.246;2023-03-12T09:30:24;100450.11;;;7.02;95.77
64632;BME280;58358;50.936;0.246;2023-03-12T09:32:50;100457.94;;;6.73;96.92
64632;BME280;58358;50.936;0.246;2023-03-12T09:35:16;100457.24;;;6.83;96.95
64632;BME280;58358;50.936;0.246;2023-03-12T09:37:42;100462.91;;;7.10;95.36
64632;BME280;58358;50.936;0.246;2023-03-12T09:40:14;100462.90;;;6.99;97.70
64632;BME280;58358;50.936;0.246;2023-03-12T09:42:39;100468.94;;;6.58;99.97
64632;BME280;58358;50.936;0.246;2023-03-12T09:45:02;100465.73;;;6.46;99.21
64632;BME280;58358;50.936;0.246;2023-03-12T09:47:26;100464.10;;;7.25;96.28
64632;BME280;58358;50.936;0.246;2023-03-12T09:49:52;100456.05;;;6.74;97.21
64632;BME280;58358;50.936;0.246;2023-03-12T09:52:20;100451.72;;;6.59;98.30
64632;BME280;58358;50.936;0.246;2023-03-12T09:54:46;100454.55;;;6.43;99.37
64632;BME280;58358;50.936;0.246;2023-03-12T09:57:11;100449.47;;;6.37;100.00
64632;BME280;58358;50.936;0.246;2023-03-12T09:59:32;100461.66;;;6.34;100.00
64632;BME280;58358;50.936;0.246;2023-03-12T10:01:59;100451.14;;;7.46;96.66
64632;BME280;58358;50.936;0.246;2023-03-12T10:04:31;100458.73;;;7.71;95.67
64632;BME280;58358;50.936;0.246;2023-03-12T10:06:51;100454.11;;;7.61;95.32
64632;BME280;58358;50.936;0.246;2023-03-12T10:09:23;100465.18;;;7.58;96.14
64632;BME280;58358;50.936;0.246;2023-03-12T10:11:46;100468.92;;;7.08;96.34
64632;BME280;58358;50.936;0.246;2023-03-12T10:14:16;100452.95;;;6.83;98.13
64632;BME280;58358;50.936;0.246;2023-03-12T10:16:42;100451.78;;;7.39;96.05
64632;BME280;58358;50.936;0.246;2023-03-12T10:19:07;100455.19;;;7.09;96.63
64632;BME280;58358;50.936;0.246;2023-03-12T10:21:25;100456.73;;;7.74;94.45
64632;BME280;58358;50.936;0.246;2023-03-12T10:23:57;100460.78;;;7.33;93.25
64632;BME280;58358;50.936;0.246;2023-03-12T10:26:15;100460.95;;;8.19;90.47
64632;BME280;58358;50.936;0.246;2023-03-12T10:28:40;100462.46;;;8.15;91.91
64632;BME280;58358;50.936;0.246;2023-03-12T10:31:06;100452.18;;;8.11;91.64
64632;BME280;58358;50.936;0.246;2023-03-12T10:33:37;100451.02;;;8.09;93.03
64632;BME280;58358;50.936;0.246;2023-03-12T10:35:54;100448.49;;;7.71;91.14
64632;BME280;58358;50.936;0.246;2023-03-12T10:38:25;100449.81;;;8.06;93.20
64632;BME280;58358;50.936;0.246;2023-03-12T10:40:46;100456.43;;;7.22;93.25
64632;BME280;58358;50.936;0.246;2023-03-12T10:43:11;100454.68;;;7.73;92.10
64632;BME280;58358;50.936;0.246;2023-03-12T10:45:39;100443.65;;;7.72;95.16
64632;BME280;58358;50.936;0.246;2023-03-12T10:48:03;100438.51;;;8.03;92.74
64632;BME280;58358;50.936;0.246;2023-03-12T10:50:28;100432.58;;;7.76;93.54
64632;BME280;58358;50.936;0.246;2023-03-12T10:55:21;100428.75;;;8.01;93.03
64632;BME280;58358;50.936;0.246;2023-03-12T10:57:42;100426.72;;;8.42;92.17
64632;BME280;58358;50.936;0.246;2023-03-12T11:00:12;100416.36;;;8.65;90.69
64632;BME280;58358;50.936;0.246;2023-03-12T11:02:36;100410.19;;;9.47;86.42
64632;BME280;58358;50.936;0.246;2023-03-12T11:05:00;100407.65;;;8.82;87.15
64632;BME280;58358;50.936;0.246;2023-03-12T11:07:27;100405.44;;;8.56;89.71
64632;BME280;58358;50.936;0.246;2023-03-12T11:12:23;100404.82;;;8.62;90.34
64632;BME280;58358;50.936;0.246;2023-03-12T11:14:44;100406.51;;;8.02;92.21
64632;BME280;58358;50.936;0.246;2023-03-12T11:17:19;100407.91;;;8.61;92.50
64632;BME280;58358;50.936;0.246;2023-03-12T11:19:33;100396.99;;;8.06;94.20
64632;BME280;58358;50.936;0.246;2023-03-12T11:21:59;100404.56;;;8.57;94.14
64632;BME280;58358;50.936;0.246;2023-03-12T11:24:22;100407.60;;;8.58;93.05
64632;BME280;58358;50.936;0.246;2023-03-12T11:26:49;100414.16;;;8.52;93.80
64632;BME280;58358;50.936;0.246;2023-03-12T11:29:22;100412.18;;;7.93;97.00
64632;BME280;58358;50.936;0.246;2023-03-12T11:31:43;100418.82;;;7.72;96.97
64632;BME280;58358;50.936;0.246;2023-03-12T11:34:06;100417.93;;;8.00;96.12
64632;BME280;58358;50.936;0.246;2023-03-12T11:36:38;100412.45;;;8.47;96.03
64632;BME280;58358;50.936;0.246;2023-03-12T11:38:59;100405.43;;;8.44;94.74
64632;BME280;58358;50.936;0.246;2023-03-12T11:41:30;100411.68;;;8.84;93.02
64632;BME280;58358;50.936;0.246;2023-03-12T11:43:54;100411.18;;;9.19;91.53
64632;BME280;58358;50.936;0.246;2023-03-12T11:46:19;100411.91;;;9.38;90.27
64632;BME280;58358;50.936;0.246;2023-03-12T11:48:42;100409.66;;;9.45;87.98
64632;BME280;58358;50.936;0.246;2023-03-12T11:51:11;100403.98;;;9.42;87.43
64632;BME280;58358;50.936;0.246;2023-03-12T11:53:36;100398.05;;;9.84;87.70
64632;BME280;58358;50.936;0.246;2023-03-12T11:55:59;100392.98;;;8.83;88.63
64632;BME280;58358;50.936;0.246;2023-03-12T11:58:25;100395.64;;;9.40;89.54
64632;BME280;58358;50.936;0.246;2023-03-12T12:00:48;100387.80;;;9.45;88.18
64632;BME280;58358;50.936;0.246;2023-03-12T12:03:25;100399.05;;;9.17;89.48
64632;BME280;58358;50.936;0.246;2023-03-12T12:05:39;100392.99;;;8.11;91.76
64632;BME280;58358;50.936;0.246;2023-03-12T12:08:12;100385.38;;;8.53;90.93
64632;BME280;58358;50.936;0.246;2023-03-12T12:10:30;100385.35;;;10.09;85.64
64632;BME280;58358;50.936;0.246;2023-03-12T12:12:58;100386.78;;;8.62;89.40
64632;BME280;58358;50.936;0.246;2023-03-12T12:15:23;100380.15;;;8.18;93.21
64632;BME280;58358;50.936;0.246;2023-03-12T12:17:50;100382.62;;;7.89;93.94
64632;BME280;58358;50.936;0.246;2023-03-12T12:20:19;100378.34;;;7.57;94.49
64632;BME280;58358;50.936;0.246;2023-03-12T12:22:40;100384.97;;;7.72;95.97
64632;BME280;58358;50.936;0.246;2023-03-12T12:27:25;100384.22;;;8.36;93.36
64632;BME280;58358;50.936;0.246;2023-03-12T12:30:02;100383.77;;;8.39;92.07
64632;BME280;58358;50.936;0.246;2023-03-12T12:32:18;100379.92;;;8.04;94.26
64632;BME280;58358;50.936;0.246;2023-03-12T12:34:50;100382.92;;;8.36;92.88
64632;BME280;58358;50.936;0.246;2023-03-12T12:37:20;100383.06;;;8.44;93.56
64632;BME280;58358;50.936;0.246;2023-03-12T12:39:34;100382.21;;;8.00;94.84
64632;BME280;58358;50.936;0.246;2023-03-12T12:42:01;100378.60;;;8.37;94.98
64632;BME280;58358;50.936;0.246;2023-03-12T12:44:25;100379.00;;;8.22;94.24
64632;BME280;58358;50.936;0.246;2023-03-12T12:46:54;100381.06;;;7.54;96.09
64632;BME280;58358;50.936;0.246;2023-03-12T12:49:17;100372.77;;;7.54;96.22
64632;BME280;58358;50.936;0.246;2023-03-12T12:51:43;100373.76;;;7.75;95.74
64632;BME280;58358;50.936;0.246;2023-03-12T12:54:08;100380.24;;;7.95;96.08
64632;BME280;58358;50.936;0.246;2023-03-12T12:56:37;100376.99;;;7.77;97.63